Time;durP1;ratioP1;P1;durP2;ratioP2;P2;SDS_P1;SDS_P2;PMS_P1;PMS_P2;Temp;Humidity;BMP_temperature;BMP_pressure;BME280_temperature;BME280_humidity;BME280_pressure;Samples;Min_cycle;Max_cycle;Signal;HPM_P1;HPM_P2
2023/03/06 00:01:30;;;;;;;;;;;;;;;;;;5033601;28;20304;-72
2023/03/06 00:03:56;;;;;;;;;;;;;;;;;;5033639;28;19905;-72
2023/03/06 00:06:22;;;;;;;;;;;;;;;;;;5033683;28;19905;-72
2023/03/06 00:08:48;;;;;;;;;;;;;;;;;;5033388;28;20288;-72
2023/03/06 00:11:14;;;;;;;;;;;;;;;;;;5033440;28;19945;-70
2023/03/06 00:13:40;;;;;;;;;;;;;;;;;;5033422;28;19905;-72
2023/03/06 00:16:06;;;;;;;;;;;;;;;;;;5033204;28;19911;-71
2023/03/06 00:18:32;;;;;;;;;;;;;;;;;;5033163;28;19940;-72
2023/03/06 00:20:58;;;;;;;;;;;;;;;;;;5033100;28;20271;-71
2023/03/06 00:23:24;;;;;;;;;;;;;;;;;;5033031;28;19905;-72
2023/03/06 00:25:50;;;;;;;;;;;;;;;;;;5033071;28;19905;-72
2023/03/06 00:28:16;;;;;;;;;;;;;;;;;;5033043;28;19912;-71
2023/03/06 00:30:42;;;;;;;;;;;;;;;;;;5032976;28;20262;-72
2023/03/06 00:33:08;;;;;;;;;;;;;;;;;;5032905;28;19911;-71
2023/03/06 00:35:34;;;;;;;;;;;;;;;;;;5032844;28;19905;-72
2023/03/06 00:38:00;;;;;;;;;;;;;;;;;;5032217;28;20361;-70
2023/03/06 00:40:26;;;;;;;;;;;;;;;;;;5032875;28;19909;-72
2023/03/06 00:42:52;;;;;;;;;;;;;;;;;;5032844;28;19957;-73
2023/03/06 00:45:18;;;;;;;;;;;;;;;;;;5032758;28;19905;-72
2023/03/06 00:47:44;;;;;;;;;;;;;;;;;;5032518;28;19901;-71
2023/03/06 00:50:10;;;;;;;;;;;;;;;;;;5032672;28;19905;-72
2023/03/06 00:52:35;;;;;;;;;;;;;;;;;;5032584;28;20425;-72
2023/03/06 00:55:01;;;;;;;;;;;;;;;;;;5031309;28;20408;-71
2023/03/06 00:57:27;;;;;;;;;;;;;;;;;;5032221;28;19936;-72
2023/03/06 00:59:53;;;;;;;;;;;;;;;;;;5032415;28;19905;-72
2023/03/06 01:02:19;;;;;;;;;;;;;;;;;;5032329;28;19901;-71
2023/03/06 01:04:45;;;;;;;;;;;;;;;;;;5032466;28;19905;-73
2023/03/06 01:07:11;;;;;;;;;;;;;;;;;;5032304;28;19912;-74
2023/03/06 01:09:37;;;;;;;;;;;;;;;;;;5032340;28;19908;-73
2023/03/06 01:12:03;;;;;;;;;;;;;;;;;;5031913;28;19901;-73
2023/03/06 01:14:30;;;;;;;;;;;;;;;;;;5032350;28;19905;-73
2023/03/06 01:16:56;;;;;;;;;;;;;;;;;;5032078;28;19955;-73
2023/03/06 01:19:22;;;;;;;;;;;;;;;;;;5031956;28;20236;-72
2023/03/06 01:21:48;;;;;;;;;;;;;;;;;;5031932;28;20396;-72
2023/03/06 01:24:13;;;;;;;;;;;;;;;;;;5031980;28;20354;-73
2023/03/06 01:26:39;;;;;;;;;;;;;;;;;;5032055;28;19912;-71
2023/03/06 01:29:05;;;;;;;;;;;;;;;;;;5032049;28;19976;-73
2023/03/06 01:31:31;;;;;;;;;;;;;;;;;;5032012;28;19911;-72
2023/03/06 01:33:57;;;;;;;;;;;;;;;;;;5032036;28;19907;-72
2023/03/06 01:36:23;;;;;;;;;;;;;;;;;;5031767;28;19928;-73
2023/03/06 01:38:49;;;;;;;;;;;;;;;;;;5031558;28;20393;-73
2023/03/06 01:41:15;;;;;;;;;;;;;;;;;;5031672;28;19909;-72
2023/03/06 01:43:42;;;;;;;;;;;;;;;;;;5031862;28;19909;-72
2023/03/06 01:46:08;;;;;;;;;;;;;;;;;;5031440;28;19905;-72
2023/03/06 01:48:34;;;;;;;;;;;;;;;;;;5030837;28;19976;-72
2023/03/06 01:51:00;;;;;;;;;;;;;;;;;;5031813;28;19959;-72
2023/03/06 01:53:26;;;;;;;;;;;;;;;;;;5031728;28;19909;-71
2023/03/06 01:55:52;;;;;;;;;;;;;;;;;;5031672;28;19975;-71
2023/03/06 01:58:18;;;;;;;;;;;;;;;;;;5031424;28;20345;-71
2023/03/06 02:00:44;;;;;;;;;;;;;;;;;;5031612;28;19956;-72
2023/03/06 02:03:10;;;;;;;;;;;;;;;;;;5030238;28;19905;-72
2023/03/06 02:05:36;;;;;;;;;;;;;;;;;;5031497;28;19961;-72
2023/03/06 02:08:02;;;;;;;;;;;;;;;;;;5031503;28;19948;-71
2023/03/06 02:10:28;;;;;;;;;;;;;;;;;;5031306;28;19905;-71
2023/03/06 02:12:54;;;;;;;;;;;;;;;;;;5031505;28;19905;-72
2023/03/06 02:15:20;;;;;;;;;;;;;;;;;;5031429;28;19912;-71
2023/03/06 02:17:46;;;;;;;;;;;;;;;;;;5031278;28;20305;-72
2023/03/06 02:20:11;;;;;;;;;;;;;;;;;;5031296;28;19921;-72
2023/03/06 02:22:37;;;;;;;;;;;;;;;;;;5031372;28;19911;-71
2023/03/06 02:25:03;;;;;;;;;;;;;;;;;;5031087;28;19912;-72
2023/03/06 02:27:29;;;;;;;;;;;;;;;;;;5031327;28;19904;-71
2023/03/06 02:29:55;;;;;;;;;;;;;;;;;;5031433;28;19909;-68
2023/03/06 02:32:21;;;;;;;;;;;;;;;;;;5031351;28;19928;-72
2023/03/06 02:34:47;;;;;;;;;;;;;;;;;;5031076;28;20354;-72
2023/03/06 02:37:13;;;;;;;;;;;;;;;;;;5031078;28;19913;-71
2023/03/06 02:39:39;;;;;;;;;;;;;;;;;;5030908;28;19905;-73
2023/03/06 02:42:05;;;;;;;;;;;;;;;;;;5030972;28;20400;-72
2023/03/06 02:44:31;;;;;;;;;;;;;;;;;;5031017;28;19912;-70
2023/03/06 02:46:56;;;;;;;;;;;;;;;;;;5031342;28;19912;-72
2023/03/06 02:49:22;;;;;;;;;;;;;;;;;;5031046;28;19912;-71
2023/03/06 02:51:48;;;;;;;;;;;;;;;;;;5031189;28;19905;-71
2023/03/06 02:54:17;;;;;;;;;;;;;;;;;;5030968;28;19912;-71
2023/03/06 02:56:43;;;;;;;;;;;;;;;;;;5030920;28;19909;-70
2023/03/06 02:59:09;;;;;;;;;;;;;;;;;;5031316;28;19919;-71
2023/03/06 03:01:34;;;;;;;;;;;;;;;;;;5034883;28;20003;-72
2023/03/06 03:04:00;;;;;;;;;;;;;;;;;;5034658;28;19948;-72
2023/03/06 03:06:26;;;;;;;;;;;;;;;;;;5034648;28;19948;-72
2023/03/06 03:08:52;;;;;;;;;;;;;;;;;;5034522;28;20350;-71
2023/03/06 03:11:18;;;;;;;;;;;;;;;;;;5034636;28;19932;-72
2023/03/06 03:13:44;;;;;;;;;;;;;;;;;;5034394;28;19951;-72
2023/03/06 03:16:10;;;;;;;;;;;;;;;;;;5034304;28;19912;-71
2023/03/06 03:18:36;;;;;;;;;;;;;;;;;;5034478;28;19913;-70
2023/03/06 03:21:02;;;;;;;;;;;;;;;;;;5034231;28;20385;-70
2023/03/06 03:23:28;;;;;;;;;;;;;;;;;;5034298;28;19908;-73
2023/03/06 03:25:54;;;;;;;;;;;;;;;;;;5034174;28;19905;-71
2023/03/06 03:28:20;;;;;;;;;;;;;;;;;;5034362;28;19905;-72
2023/03/06 03:30:45;;;;;;;;;;;;;;;;;;5034023;28;19959;-72
2023/03/06 03:33:11;;;;;;;;;;;;;;;;;;5034391;28;19960;-72
2023/03/06 03:35:37;;;;;;;;;;;;;;;;;;5034082;28;19944;-71
2023/03/06 03:38:03;;;;;;;;;;;;;;;;;;5032643;28;19924;-72
2023/03/06 03:40:29;;;;;;;;;;;;;;;;;;5033881;28;19905;-72
2023/03/06 03:42:55;;;;;;;;;;;;;;;;;;5033898;28;19905;-72
2023/03/06 03:45:21;;;;;;;;;;;;;;;;;;5033798;28;20272;-72
2023/03/06 03:47:47;;;;;;;;;;;;;;;;;;5033808;28;19905;-72
2023/03/06 03:50:13;;;;;;;;;;;;;;;;;;5033797;28;20270;-72
2023/03/06 03:52:39;;;;;;;;;;;;;;;;;;5033650;28;20397;-71
2023/03/06 03:55:05;;;;;;;;;;;;;;;;;;5033619;28;19912;-72
2023/03/06 03:57:31;;;;;;;;;;;;;;;;;;5033696;28;19917;-72
2023/03/06 03:59:57;;;;;;;;;;;;;;;;;;5033701;28;20285;-70
2023/03/06 04:02:23;;;;;;;;;;;;;;;;;;5033668;28;20371;-72
2023/03/06 04:04:48;;;;;;;;;;;;;;;;;;5033433;28;20365;-72
2023/03/06 04:07:14;;;;;;;;;;;;;;;;;;5033461;28;20012;-74
2023/03/06 04:09:40;;;;;;;;;;;;;;;;;;5033488;28;19901;-72
2023/03/06 04:12:06;;;;;;;;;;;;;;;;;;5032667;28;19905;-73
2023/03/06 04:14:32;;;;;;;;;;;;;;;;;;5033284;28;19905;-72
2023/03/06 04:16:58;;;;;;;;;;;;;;;;;;5033219;28;20417;-71
2023/03/06 04:19:24;;;;;;;;;;;;;;;;;;5033036;28;20369;-72
2023/03/06 04:21:50;;;;;;;;;;;;;;;;;;5033104;28;20012;-73
2023/03/06 04:24:16;;;;;;;;;;;;;;;;;;5033250;28;20000;-72
2023/03/06 04:26:42;;;;;;;;;;;;;;;;;;5033101;28;19960;-72
2023/03/06 04:29:08;;;;;;;;;;;;;;;;;;5033150;28;19932;-71
2023/03/06 04:31:33;;;;;;;;;;;;;;;;;;5033040;28;19959;-70
2023/03/06 04:33:59;;;;;;;;;;;;;;;;;;5032918;28;19905;-70
2023/03/06 04:36:25;;;;;;;;;;;;;;;;;;5032960;28;20427;-71
2023/03/06 04:38:51;;;;;;;;;;;;;;;;;;5032861;28;19913;-70
2023/03/06 04:41:17;;;;;;;;;;;;;;;;;;5032678;28;20399;-70
2023/03/06 04:43:43;;;;;;;;;;;;;;;;;;5032887;28;20389;-71
2023/03/06 04:46:09;;;;;;;;;;;;;;;;;;5032542;28;20377;-71
2023/03/06 04:48:35;;;;;;;;;;;;;;;;;;5032701;28;19905;-70
2023/03/06 04:51:01;;;;;;;;;;;;;;;;;;5031296;28;19913;-70
2023/03/06 04:53:27;;;;;;;;;;;;;;;;;;5049253;28;19904;-69
2023/03/06 04:55:53;;;;;;;;;;;;;;;;;;5052667;28;19911;-70
2023/03/06 04:58:19;;;;;;;;;;;;;;;;;;5052156;28;20316;-70
2023/03/06 05:00:45;;;;;;;;;;;;;;;;;;5052199;28;19909;-69
2023/03/06 05:03:11;;;;;;;;;;;;;;;;;;5052119;28;20003;-70
2023/03/06 05:05:37;;;;;;;;;;;;;;;;;;5052309;28;20003;-70
2023/03/06 05:08:03;;;;;;;;;;;;;;;;;;5051227;28;20346;-72
2023/03/06 05:10:29;;;;;;;;;;;;;;;;;;5051655;28;19908;-70
2023/03/06 05:12:55;;;;;;;;;;;;;;;;;;5052006;28;20016;-70
2023/03/06 05:15:21;;;;;;;;;;;;;;;;;;5051853;28;20007;-71
2023/03/06 05:17:47;;;;;;;;;;;;;;;;;;5051708;28;20008;-71
2023/03/06 05:20:13;;;;;;;;;;;;;;;;;;5051677;28;19952;-69
2023/03/06 05:22:39;;;;;;;;;;;;;;;;;;5051832;28;19911;-72
2023/03/06 05:25:04;;;;;;;;;;;;;;;;;;5051839;28;19935;-71
2023/03/06 05:27:30;;;;;;;;;;;;;;;;;;5051688;28;20289;-71
2023/03/06 05:29:56;;;;;;;;;;;;;;;;;;5051779;28;19905;-71
2023/03/06 05:32:22;;;;;;;;;;;;;;;;;;5050438;28;19904;-69
2023/03/06 05:34:48;;;;;;;;;;;;;;;;;;5051719;28;20273;-70
2023/03/06 05:37:14;;;;;;;;;;;;;;;;;;5051566;28;20369;-71
2023/03/06 05:39:40;;;;;;;;;;;;;;;;;;5051450;28;20353;-70
2023/03/06 05:42:06;;;;;;;;;;;;;;;;;;5051584;28;19908;-70
2023/03/06 05:44:32;;;;;;;;;;;;;;;;;;5051252;28;20323;-71
2023/03/06 05:46:58;;;;;;;;;;;;;;;;;;5051525;28;20376;-69
2023/03/06 05:49:24;;;;;;;;;;;;;;;;;;5051522;28;20423;-70
2023/03/06 05:51:50;;;;;;;;;;;;;;;;;;5051655;28;19905;-70
2023/03/06 05:54:16;;;;;;;;;;;;;;;;;;5050135;28;20514;-70
2023/03/06 05:56:42;;;;;;;;;;;;;;;;;;5051553;28;19908;-71
2023/03/06 05:59:08;;;;;;;;;;;;;;;;;;5051330;28;19934;-70
2023/03/06 06:01:34;;;;;;;;;;;;;;;;;;5051186;28;19909;-72
2023/03/06 06:03:59;;;;;;;;;;;;;;;;;;5051286;28;19955;-71
2023/03/06 06:06:25;;;;;;;;;;;;;;;;;;5051309;28;20276;-72
2023/03/06 06:08:51;;;;;;;;;;;;;;;;;;5051376;28;20361;-70
2023/03/06 06:11:19;;;;;;;;;;;;;;;;;;5049834;28;19908;-71
2023/03/06 06:13:45;;;;;;;;;;;;;;;;;;5051238;28;20008;-73
2023/03/06 06:16:11;;;;;;;;;;;;;;;;;;5041551;28;20022;-71
2023/03/06 06:18:37;;;;;;;;;;;;;;;;;;5030952;28;20139;-73
2023/03/06 06:21:03;;;;;;;;;;;;;;;;;;5032539;28;19905;-72
2023/03/06 06:23:29;;;;;;;;;;;;;;;;;;5048590;28;19995;-71
2023/03/06 06:25:55;;;;;;;;;;;;;;;;;;5033121;28;20379;-70
2023/03/06 06:28:21;;;;;;;;;;;;;;;;;;5047148;28;19908;-70
2023/03/06 06:30:47;;;;;;;;;;;;;;;;;;5031043;28;19912;-71
2023/03/06 06:33:13;;;;;;;;;;;;;;;;;;5036994;28;19916;-71
2023/03/06 06:35:39;;;;;;;;;;;;;;;;;;5033832;28;19905;-70
2023/03/06 06:38:05;;;;;;;;;;;;;;;;;;5042312;28;19939;-70
2023/03/06 06:40:31;;;;;;;;;;;;;;;;;;5053025;28;19909;-72
2023/03/06 06:42:56;;;;;;;;;;;;;;;;;;5052624;28;19963;-71
2023/03/06 06:45:22;;;;;;;;;;;;;;;;;;5035880;28;20007;-70
2023/03/06 06:47:48;;;;;;;;;;;;;;;;;;5042146;28;19955;-72
2023/03/06 06:50:14;;;;;;;;;;;;;;;;;;5054769;28;19959;-72
2023/03/06 06:52:40;;;;;;;;;;;;;;;;;;5055028;28;19905;-71
2023/03/06 06:55:06;;;;;;;;;;;;;;;;;;5044073;28;20415;-71
2023/03/06 06:57:32;;;;;;;;;;;;;;;;;;5041891;28;19913;-72
2023/03/06 06:59:58;;;;;;;;;;;;;;;;;;5037666;28;19941;-70
2023/03/06 07:02:24;;;;;;;;;;;;;;;;;;5037750;28;19948;-72
2023/03/06 07:04:50;;;;;;;;;;;;;;;;;;5034392;28;19916;-72
2023/03/06 07:07:16;;;;;;;;;;;;;;;;;;5036238;28;19909;-69
2023/03/06 07:09:42;;;;;;;;;;;;;;;;;;5049771;28;19909;-69
2023/03/06 07:12:08;;;;;;;;;;;;;;;;;;5041202;28;19952;-69
2023/03/06 07:14:34;;;;;;;;;;;;;;;;;;5033140;28;19912;-72
2023/03/06 07:16:59;;;;;;;;;;;;;;;;;;5034192;28;19909;-72
2023/03/06 07:19:25;;;;;;;;;;;;;;;;;;5034481;28;19924;-70
2023/03/06 07:21:51;;;;;;;;;;;;;;;;;;5034287;28;20277;-69
2023/03/06 07:24:17;;;;;;;;;;;;;;;;;;5034573;28;20254;-69
2023/03/06 07:26:43;;;;;;;;;;;;;;;;;;5033904;28;20285;-70
2023/03/06 07:29:09;;;;;;;;;;;;;;;;;;5034292;28;19905;-70
2023/03/06 07:31:35;;;;;;;;;;;;;;;;;;5034127;28;19905;-69
2023/03/06 07:34:01;;;;;;;;;;;;;;;;;;5035059;28;19912;-71
2023/03/06 07:36:27;;;;;;;;;;;;;;;;;;5037070;28;19913;-70
2023/03/06 07:38:53;;;;;;;;;;;;;;;;;;5048547;28;20015;-69
2023/03/06 07:41:19;;;;;;;;;;;;;;;;;;5034008;28;19905;-70
2023/03/06 07:43:44;;;;;;;;;;;;;;;;;;5041459;28;19912;-71
2023/03/06 07:46:11;;;;;;;;;;;;;;;;;;5049136;28;19908;-70
2023/03/06 07:48:37;;;;;;;;;;;;;;;;;;5053486;28;19939;-72
2023/03/06 07:51:03;;;;;;;;;;;;;;;;;;5035339;28;19944;-73
2023/03/06 07:53:29;;;;;;;;;;;;;;;;;;5044211;28;19915;-72
2023/03/06 07:55:55;;;;;;;;;;;;;;;;;;5053327;28;19911;-71
2023/03/06 07:58:21;;;;;;;;;;;;;;;;;;5050531;28;20012;-72
2023/03/06 08:00:47;;;;;;;;;;;;;;;;;;5035811;28;20378;-71
2023/03/06 08:03:13;;;;;;;;;;;;;;;;;;5033055;28;19952;-71
2023/03/06 08:05:39;;;;;;;;;;;;;;;;;;5032344;28;19936;-71
2023/03/06 08:08:05;;;;;;;;;;;;;;;;;;5034855;28;19970;-72
2023/03/06 08:10:31;;;;;;;;;;;;;;;;;;5034674;28;19913;-73
2023/03/06 08:12:57;;;;;;;;;;;;;;;;;;5033385;28;20007;-72
2023/03/06 08:15:23;;;;;;;;;;;;;;;;;;5033279;28;20065;-70
2023/03/06 08:17:49;;;;;;;;;;;;;;;;;;5035664;28;19987;-71
2023/03/06 08:20:15;;;;;;;;;;;;;;;;;;5048876;28;19917;-72
2023/03/06 08:22:41;;;;;;;;;;;;;;;;;;5047275;28;19916;-71
2023/03/06 08:25:07;;;;;;;;;;;;;;;;;;5041954;28;19909;-70
2023/03/06 08:27:33;;;;;;;;;;;;;;;;;;5034684;28;19915;-71
2023/03/06 08:29:59;;;;;;;;;;;;;;;;;;5037216;28;19924;-71
2023/03/06 08:32:25;;;;;;;;;;;;;;;;;;5037724;28;20277;-71
2023/03/06 08:34:51;;;;;;;;;;;;;;;;;;5032977;28;19905;-71
2023/03/06 08:37:17;;;;;;;;;;;;;;;;;;5035934;28;19916;-71
2023/03/06 08:39:43;;;;;;;;;;;;;;;;;;5035340;28;19909;-73
2023/03/06 08:42:09;;;;;;;;;;;;;;;;;;5032907;28;20342;-73
2023/03/06 08:44:35;;;;;;;;;;;;;;;;;;5036496;28;19941;-73
2023/03/06 08:47:01;;;;;;;;;;;;;;;;;;5048379;28;19947;-72
2023/03/06 08:49:27;;;;;;;;;;;;;;;;;;5038907;28;19952;-72
2023/03/06 08:51:53;;;;;;;;;;;;;;;;;;5041296;28;19940;-74
2023/03/06 08:54:19;;;;;;;;;;;;;;;;;;5044828;28;20407;-73
2023/03/06 08:56:45;;;;;;;;;;;;;;;;;;5032369;28;19905;-71
2023/03/06 08:59:12;;;;;;;;;;;;;;;;;;5041424;28;20018;-72
2023/03/06 09:01:38;;;;;;;;;;;;;;;;;;5034790;28;19909;-73
2023/03/06 09:04:04;;;;;;;;;;;;;;;;;;5050243;28;20046;-74
2023/03/06 09:06:29;;;;;;;;;;;;;;;;;;5045962;28;19905;-72
2023/03/06 09:08:55;;;;;;;;;;;;;;;;;;5033360;28;19916;-72
2023/03/06 09:11:21;;;;;;;;;;;;;;;;;;5052144;28;19905;-71
2023/03/06 09:13:47;;;;;;;;;;;;;;;;;;5051901;28;19911;-71
2023/03/06 09:16:13;;;;;;;;;;;;;;;;;;5037543;28;19909;-72
2023/03/06 09:18:39;;;;;;;;;;;;;;;;;;5033675;28;20368;-71
2023/03/06 09:21:05;;;;;;;;;;;;;;;;;;5032235;28;19931;-72
2023/03/06 09:23:31;;;;;;;;;;;;;;;;;;5031562;28;20385;-72
2023/03/06 09:25:57;;;;;;;;;;;;;;;;;;5031935;28;19951;-74
2023/03/06 09:28:23;;;;;;;;;;;;;;;;;;5034697;28;19952;-71
2023/03/06 09:30:49;;;;;;;;;;;;;;;;;;5045088;28;20273;-71
2023/03/06 09:33:15;;;;;;;;;;;;;;;;;;5050999;28;20365;-71
2023/03/06 09:35:41;;;;;;;;;;;;;;;;;;5037998;28;19912;-71
2023/03/06 09:38:07;;;;;;;;;;;;;;;;;;5039457;28;19917;-75
2023/03/06 09:40:33;;;;;;;;;;;;;;;;;;5037564;28;19905;-74
2023/03/06 09:42:59;;;;;;;;;;;;;;;;;;5035298;28;19909;-72
2023/03/06 09:45:24;;;;;;;;;;;;;;;;;;5047114;28;20284;-72
2023/03/06 09:47:51;;;;;;;;;;;;;;;;;;5049395;28;20358;-72
2023/03/06 09:50:17;;;;;;;;;;;;;;;;;;5031158;28;19905;-72
2023/03/06 09:52:43;;;;;;;;;;;;;;;;;;5034506;28;19919;-71
2023/03/06 09:55:10;;;;;;;;;;;;;;;;;;5032512;28;19935;-72
2023/03/06 09:57:36;;;;;;;;;;;;;;;;;;5032425;28;19920;-69
2023/03/06 10:00:02;;;;;;;;;;;;;;;;;;5040371;28;19913;-69
2023/03/06 10:02:29;;;;;;;;;;;;;;;;;;5035276;28;19909;-73
2023/03/06 10:04:55;;;;;;;;;;;;;;;;;;5030678;28;19958;-73
2023/03/06 10:07:20;;;;;;;;;;;;;;;;;;5033849;28;19954;-72
2023/03/06 10:09:46;;;;;;;;;;;;;;;;;;5041143;28;19909;-81
2023/03/06 10:12:12;;;;;;;;;;;;;;;;;;5040367;28;20519;-73
2023/03/06 10:14:38;;;;;;;;;;;;;;;;;;5052274;28;20007;-70
2023/03/06 10:17:04;;;;;;;;;;;;;;;;;;5037161;28;20000;-74
2023/03/06 10:19:30;;;;;;;;;;;;;;;;;;5035054;28;19924;-71
2023/03/06 10:21:56;;;;;;;;;;;;;;;;;;5052049;28;20445;-74
2023/03/06 10:24:22;;;;;;;;;;;;;;;;;;5039089;28;19996;-72
2023/03/06 10:26:48;;;;;;;;;;;;;;;;;;5041122;28;19996;-72
2023/03/06 10:29:14;;;;;;;;;;;;;;;;;;5047704;28;19913;-71
2023/03/06 10:31:40;;;;;;;;;;;;;;;;;;5044007;28;19905;-74
2023/03/06 10:34:06;;;;;;;;;;;;;;;;;;5038901;28;19915;-73
2023/03/06 10:36:32;;;;;;;;;;;;;;;;;;5040507;28;19909;-72
2023/03/06 10:38:58;;;;;;;;;;;;;;;;;;5044083;28;20297;-73
2023/03/06 10:41:24;;;;;;;;;;;;;;;;;;5035262;28;19905;-73
2023/03/06 10:43:49;;;;;;;;;;;;;;;;;;5034870;28;20373;-72
2023/03/06 10:46:15;;;;;;;;;;;;;;;;;;5034921;28;19906;-72
2023/03/06 10:48:41;;;;;;;;;;;;;;;;;;5034832;28;19908;-72
2023/03/06 10:51:07;;;;;;;;;;;;;;;;;;5034904;28;20350;-72
2023/03/06 10:53:33;;;;;;;;;;;;;;;;;;5039596;28;19973;-73
2023/03/06 10:55:59;;;;;;;;;;;;;;;;;;5034430;28;19905;-72
2023/03/06 10:58:25;;;;;;;;;;;;;;;;;;5033359;28;20265;-72
2023/03/06 11:00:51;;;;;;;;;;;;;;;;;;5034704;28;19912;-77
2023/03/06 11:03:17;;;;;;;;;;;;;;;;;;5036366;28;19909;-79
2023/03/06 11:05:43;;;;;;;;;;;;;;;;;;5034388;28;19916;-79
2023/03/06 11:08:09;;;;;;;;;;;;;;;;;;5034606;28;19995;-78
2023/03/06 11:10:35;;;;;;;;;;;;;;;;;;5034246;28;19949;-79
2023/03/06 11:13:01;;;;;;;;;;;;;;;;;;5034413;28;19951;-80
2023/03/06 11:15:27;;;;;;;;;;;;;;;;;;5035939;28;19959;-80
2023/03/06 11:17:53;;;;;;;;;;;;;;;;;;5052318;28;20487;-80
2023/03/06 11:20:19;;;;;;;;;;;;;;;;;;5048896;28;20430;-78
2023/03/06 11:22:45;;;;;;;;;;;;;;;;;;5036979;28;20007;-79
2023/03/06 11:25:11;;;;;;;;;;;;;;;;;;5037688;28;20301;-78
2023/03/06 11:27:41;;;;;;;;;;;;;;;;;;5048316;28;20650;-74
2023/03/06 11:30:07;;;;;;;;;;;;;;;;;;5062046;28;19908;-75
2023/03/06 11:32:33;;;;;;;;;;;;;;;;;;5074396;28;19909;-73
2023/03/06 11:34:59;;;;;;;;;;;;;;;;;;5072711;28;20383;-73
2023/03/06 11:37:25;;;;;;;;;;;;;;;;;;5074077;28;20321;-74
2023/03/06 11:39:52;;;;;;;;;;;;;;;;;;5073726;28;19962;-74
2023/03/06 11:42:18;;;;;;;;;;;;;;;;;;5073795;28;19931;-73
2023/03/06 11:44:43;;;;;;;;;;;;;;;;;;5073838;28;19908;-74
2023/03/06 11:47:09;;;;;;;;;;;;;;;;;;5042956;28;19909;-74
2023/03/06 11:49:35;;;;;;;;;;;;;;;;;;5033936;28;19959;-73
2023/03/06 11:52:01;;;;;;;;;;;;;;;;;;5035595;28;19909;-74
2023/03/06 11:54:27;;;;;;;;;;;;;;;;;;5053639;28;19904;-73
2023/03/06 11:56:53;;;;;;;;;;;;;;;;;;5053410;28;19908;-73
2023/03/06 11:59:19;;;;;;;;;;;;;;;;;;5049429;28;19924;-73
2023/03/06 12:01:45;;;;;;;;;;;;;;;;;;5039823;28;19917;-73
2023/03/06 12:04:11;;;;;;;;;;;;;;;;;;5044162;28;20278;-74
2023/03/06 12:06:37;;;;;;;;;;;;;;;;;;5033243;28;19958;-73
2023/03/06 12:09:03;;;;;;;;;;;;;;;;;;5043609;28;20000;-73
2023/03/06 12:11:29;;;;;;;;;;;;;;;;;;5041178;28;19909;-74
2023/03/06 12:13:55;;;;;;;;;;;;;;;;;;5033273;28;19912;-73
2023/03/06 12:16:23;;;;;;;;;;;;;;;;;;5039371;28;19917;-72
2023/03/06 12:18:49;;;;;;;;;;;;;;;;;;5040673;28;19917;-72
2023/03/06 12:21:14;;;;;;;;;;;;;;;;;;5032882;28;20020;-73
2023/03/06 12:23:40;;;;;;;;;;;;;;;;;;5051234;28;19905;-73
2023/03/06 12:26:06;;;;;;;;;;;;;;;;;;5052768;28;19904;-73
2023/03/06 12:28:32;;;;;;;;;;;;;;;;;;5044303;28;19966;-73
2023/03/06 12:31:00;;;;;;;;;;;;;;;;;;5038334;28;19931;-73
2023/03/06 12:33:26;;;;;;;;;;;;;;;;;;5039254;28;19904;-73
2023/03/06 12:35:52;;;;;;;;;;;;;;;;;;5039263;28;19916;-72
2023/03/06 12:38:18;;;;;;;;;;;;;;;;;;5040332;28;19927;-72
2023/03/06 12:40:44;;;;;;;;;;;;;;;;;;5046140;28;19962;-72
2023/03/06 12:43:10;;;;;;;;;;;;;;;;;;5032769;28;20313;-73
2023/03/06 12:45:36;;;;;;;;;;;;;;;;;;5032521;28;19901;-72
2023/03/06 12:48:02;;;;;;;;;;;;;;;;;;5034535;28;20083;-72
2023/03/06 12:50:28;;;;;;;;;;;;;;;;;;5032462;28;20361;-73
2023/03/06 12:52:54;;;;;;;;;;;;;;;;;;5032516;28;20348;-72
2023/03/06 12:55:20;;;;;;;;;;;;;;;;;;5034472;28;20007;-69
2023/03/06 12:57:47;;;;;;;;;;;;;;;;;;5039833;28;19917;-70
2023/03/06 13:00:13;;;;;;;;;;;;;;;;;;5050303;28;19912;-71
2023/03/06 13:02:39;;;;;;;;;;;;;;;;;;5042928;28;20452;-71
2023/03/06 13:05:05;;;;;;;;;;;;;;;;;;5034454;28;20361;-72
2023/03/06 13:07:31;;;;;;;;;;;;;;;;;;5030979;28;19912;-72
2023/03/06 13:09:57;;;;;;;;;;;;;;;;;;5033237;28;20349;-71
2023/03/06 13:12:23;;;;;;;;;;;;;;;;;;5035045;28;19931;-70
2023/03/06 13:14:49;;;;;;;;;;;;;;;;;;5041569;28;19916;-71
2023/03/06 13:17:15;;;;;;;;;;;;;;;;;;5038143;28;19917;-72
2023/03/06 13:19:41;;;;;;;;;;;;;;;;;;5038654;28;19920;-72
2023/03/06 13:22:07;;;;;;;;;;;;;;;;;;5040567;28;20004;-72
2023/03/06 13:24:33;;;;;;;;;;;;;;;;;;5051809;28;20344;-72
2023/03/06 13:26:59;;;;;;;;;;;;;;;;;;5036391;28;19909;-72
2023/03/06 13:29:24;;;;;;;;;;;;;;;;;;5032932;28;20000;-71
2023/03/06 13:31:50;;;;;;;;;;;;;;;;;;5050904;28;19908;-70
2023/03/06 13:34:16;;;;;;;;;;;;;;;;;;5038352;28;19951;-69
2023/03/06 13:36:42;;;;;;;;;;;;;;;;;;5037208;28;19909;-71
2023/03/06 13:39:08;;;;;;;;;;;;;;;;;;5035092;28;21061;-71
2023/03/06 13:41:34;;;;;;;;;;;;;;;;;;5046119;28;19916;-70
2023/03/06 13:44:00;;;;;;;;;;;;;;;;;;5051559;28;19905;-70
2023/03/06 13:46:26;;;;;;;;;;;;;;;;;;5048308;28;19924;-70
2023/03/06 13:48:52;;;;;;;;;;;;;;;;;;5032067;28;19992;-71
2023/03/06 13:51:18;;;;;;;;;;;;;;;;;;5032608;28;19952;-71
2023/03/06 13:53:44;;;;;;;;;;;;;;;;;;5030353;28;19960;-70
2023/03/06 13:56:09;;;;;;;;;;;;;;;;;;5032758;28;19970;-70
2023/03/06 13:58:35;;;;;;;;;;;;;;;;;;5051159;28;20357;-70
2023/03/06 14:01:01;;;;;;;;;;;;;;;;;;5040258;28;19909;-71
2023/03/06 14:03:27;;;;;;;;;;;;;;;;;;5044881;28;19954;-71
2023/03/06 14:05:53;;;;;;;;;;;;;;;;;;5031497;28;19908;-71
2023/03/06 14:08:19;;;;;;;;;;;;;;;;;;5032650;28;19909;-72
2023/03/06 14:10:45;;;;;;;;;;;;;;;;;;5031012;28;19916;-70
2023/03/06 14:13:11;;;;;;;;;;;;;;;;;;5031283;28;19905;-72
2023/03/06 14:15:37;;;;;;;;;;;;;;;;;;5045914;28;19905;-70
2023/03/06 14:18:03;;;;;;;;;;;;;;;;;;5033574;28;20031;-70
2023/03/06 14:20:29;;;;;;;;;;;;;;;;;;5044590;28;19916;-71
2023/03/06 14:22:55;;;;;;;;;;;;;;;;;;5030897;28;19910;-71
2023/03/06 14:25:21;;;;;;;;;;;;;;;;;;5031295;28;19912;-70
2023/03/06 14:27:47;;;;;;;;;;;;;;;;;;5031811;28;19916;-70
2023/03/06 14:30:13;;;;;;;;;;;;;;;;;;5051193;28;19912;-70
2023/03/06 14:32:39;;;;;;;;;;;;;;;;;;5049690;28;19901;-70
2023/03/06 14:35:05;;;;;;;;;;;;;;;;;;5050980;28;19912;-71
2023/03/06 14:37:31;;;;;;;;;;;;;;;;;;5035436;28;19912;-70
2023/03/06 14:39:57;;;;;;;;;;;;;;;;;;5030720;28;20004;-71
2023/03/06 14:42:23;;;;;;;;;;;;;;;;;;5029769;28;20072;-70
2023/03/06 14:44:49;;;;;;;;;;;;;;;;;;5042633;28;20494;-71
2023/03/06 14:47:15;;;;;;;;;;;;;;;;;;5042057;28;19905;-71
2023/03/06 14:49:41;;;;;;;;;;;;;;;;;;5030754;28;20035;-71
2023/03/06 14:52:07;;;;;;;;;;;;;;;;;;5040893;28;19945;-70
2023/03/06 14:54:33;;;;;;;;;;;;;;;;;;5031420;28;19955;-70
2023/03/06 14:56:59;;;;;;;;;;;;;;;;;;5051820;28;19915;-70
2023/03/06 14:59:25;;;;;;;;;;;;;;;;;;5054010;28;20380;-69
2023/03/06 15:01:51;;;;;;;;;;;;;;;;;;5054351;28;19947;-70
2023/03/06 15:04:16;;;;;;;;;;;;;;;;;;5040543;28;19952;-70
2023/03/06 15:06:42;;;;;;;;;;;;;;;;;;5036018;28;19944;-71
2023/03/06 15:09:08;;;;;;;;;;;;;;;;;;5050857;28;19905;-71
2023/03/06 15:11:34;;;;;;;;;;;;;;;;;;5053966;28;20004;-70
2023/03/06 15:14:00;;;;;;;;;;;;;;;;;;5054114;28;19947;-70
2023/03/06 15:16:27;;;;;;;;;;;;;;;;;;5054214;28;19947;-70
2023/03/06 15:18:52;;;;;;;;;;;;;;;;;;5041819;28;19916;-69
2023/03/06 15:21:18;;;;;;;;;;;;;;;;;;5034281;28;19909;-70
2023/03/06 15:23:44;;;;;;;;;;;;;;;;;;5033428;28;19913;-70
2023/03/06 15:26:10;;;;;;;;;;;;;;;;;;5033788;28;20398;-69
2023/03/06 15:28:37;;;;;;;;;;;;;;;;;;5035077;28;19929;-70
2023/03/06 15:31:03;;;;;;;;;;;;;;;;;;5043395;28;19905;-70
2023/03/06 15:33:29;;;;;;;;;;;;;;;;;;5033671;28;19931;-70
2023/03/06 15:35:55;;;;;;;;;;;;;;;;;;5043937;28;19955;-70
2023/03/06 15:38:21;;;;;;;;;;;;;;;;;;5035640;28;19924;-71
2023/03/06 15:40:50;;;;;;;;;;;;;;;;;;5034061;28;20277;-71
2023/03/06 15:43:16;;;;;;;;;;;;;;;;;;5034004;28;19912;-71
2023/03/06 15:45:41;;;;;;;;;;;;;;;;;;5033564;28;19905;-71
2023/03/06 15:48:07;;;;;;;;;;;;;;;;;;5034834;28;19915;-72
2023/03/06 15:50:33;;;;;;;;;;;;;;;;;;5033061;28;20003;-70
2023/03/06 15:52:59;;;;;;;;;;;;;;;;;;5032236;28;20361;-71
2023/03/06 15:55:25;;;;;;;;;;;;;;;;;;5033701;28;19940;-69
2023/03/06 15:57:51;;;;;;;;;;;;;;;;;;5036703;28;19963;-70
2023/03/06 16:00:17;;;;;;;;;;;;;;;;;;5052993;28;20318;-69
2023/03/06 16:02:43;;;;;;;;;;;;;;;;;;5035564;28;20393;-71
2023/03/06 16:05:09;;;;;;;;;;;;;;;;;;5033332;28;20008;-72
2023/03/06 16:07:35;;;;;;;;;;;;;;;;;;5038719;28;19916;-69
2023/03/06 16:10:02;;;;;;;;;;;;;;;;;;5045416;28;19905;-72
2023/03/06 16:12:28;;;;;;;;;;;;;;;;;;5051429;28;19987;-71
2023/03/06 16:14:54;;;;;;;;;;;;;;;;;;5033432;28;19940;-73
2023/03/06 16:17:20;;;;;;;;;;;;;;;;;;5032049;28;19905;-70
2023/03/06 16:19:46;;;;;;;;;;;;;;;;;;5032595;28;19917;-70
2023/03/06 16:22:26;;;;;;;5.32;1.77;;;;;;;;;;5061162;28;20435;-69
2023/03/06 16:24:52;;;;;;;7.75;2.20;;;;;;;;;;5035262;28;20112;-70
2023/03/06 16:27:19;;;;;;;14.40;2.38;;;;;;;;;;5028539;28;20037;-70
2023/03/06 16:29:45;;;;;;;10.45;2.67;;;;;;;;;;5028546;28;20022;-71
2023/03/06 16:32:11;;;;;;;6.68;1.88;;;;;;;;;;5028617;28;20022;-75
2023/03/06 16:34:37;;;;;;;7.88;1.65;;;;;;;;;;5030603;28;20030;-73